createdAt,value
2023-04-19T00:00:17.644Z,56.17
2023-04-19T00:02:44.735Z,56.41
2023-04-19T00:05:13.847Z,56.32
2023-04-19T00:07:40.930Z,56.37
2023-04-19T00:10:08.363Z,56.40
2023-04-19T00:12:36.120Z,56.50
2023-04-19T00:15:03.083Z,56.60
2023-04-19T00:17:30.014Z,56.60
2023-04-19T00:19:57.039Z,56.62
2023-04-19T00:22:23.979Z,56.62
2023-04-19T00:24:51.090Z,56.52
2023-04-19T00:27:18.087Z,56.66
2023-04-19T00:29:45.090Z,56.69
2023-04-19T00:32:11.986Z,56.69
2023-04-19T00:34:38.890Z,56.82
2023-04-19T00:37:05.853Z,56.79
2023-04-19T00:39:33.293Z,56.81
2023-04-19T00:42:00.238Z,57.01
2023-04-19T00:44:27.736Z,56.86
2023-04-19T00:46:56.471Z,56.93
2023-04-19T00:49:24.798Z,56.93
2023-04-19T00:51:52.076Z,57.03
2023-04-19T00:54:19.948Z,57.00
2023-04-19T00:56:49.458Z,57.00
2023-04-19T00:59:17.491Z,56.91
2023-04-19T01:01:44.547Z,57.00
2023-04-19T01:04:11.754Z,56.86
2023-04-19T01:06:41.550Z,56.98
2023-04-19T01:09:11.095Z,56.95
2023-04-19T01:11:43.239Z,57.00
2023-04-19T01:14:10.705Z,56.84
2023-04-19T01:16:39.271Z,56.99
2023-04-19T01:19:06.668Z,56.95
2023-04-19T01:21:34.031Z,56.93
2023-04-19T01:24:01.044Z,56.84
2023-04-19T01:26:27.975Z,56.89
2023-04-19T01:28:54.933Z,56.80
2023-04-19T01:31:21.986Z,56.96
2023-04-19T01:33:48.951Z,56.86
2023-04-19T01:36:15.920Z,56.73
2023-04-19T01:38:42.906Z,56.78
2023-04-19T01:41:10.001Z,56.82
2023-04-19T01:43:36.956Z,56.61
2023-04-19T01:46:03.894Z,56.64
2023-04-19T01:48:31.210Z,56.64
2023-04-19T01:50:58.119Z,56.68
2023-04-19T01:53:25.048Z,56.63
2023-04-19T01:55:52.083Z,56.58
2023-04-19T01:58:20.691Z,56.61
2023-04-19T02:00:47.726Z,56.59
2023-04-19T02:03:14.974Z,56.48
2023-04-19T02:05:42.731Z,56.50
2023-04-19T02:08:09.569Z,56.71
2023-04-19T02:10:36.736Z,56.82
2023-04-19T02:13:03.765Z,56.90
2023-04-19T02:15:30.816Z,57.03
2023-04-19T02:18:00.401Z,57.20
2023-04-19T02:20:27.776Z,57.32
2023-04-19T02:22:54.725Z,57.53
2023-04-19T02:25:22.180Z,57.51
2023-04-19T02:27:49.234Z,57.57
2023-04-19T02:30:18.205Z,57.77
2023-04-19T02:32:45.294Z,57.89
2023-04-19T02:35:12.902Z,57.97
2023-04-19T02:37:40.187Z,58.22
2023-04-19T02:40:08.152Z,58.26
2023-04-19T02:42:35.238Z,58.24
2023-04-19T02:45:02.310Z,58.34
2023-04-19T02:47:29.303Z,58.38
2023-04-19T02:49:56.337Z,58.38
2023-04-19T02:52:23.597Z,58.55
2023-04-19T02:54:50.637Z,58.77
2023-04-19T02:57:17.796Z,58.76
2023-04-19T02:59:45.762Z,58.66
2023-04-19T03:02:13.118Z,58.80
2023-04-19T03:04:40.513Z,58.94
2023-04-19T03:07:09.252Z,58.99
2023-04-19T03:09:36.737Z,59.03
2023-04-19T03:12:04.778Z,59.03
2023-04-19T03:14:34.011Z,59.14
2023-04-19T03:17:01.855Z,59.20
2023-04-19T03:19:30.131Z,59.19
2023-04-19T03:21:57.119Z,59.21
2023-04-19T03:24:29.357Z,59.31
2023-04-19T03:26:57.505Z,59.36
2023-04-19T03:29:27.014Z,59.36
2023-04-19T03:32:01.017Z,59.28
2023-04-19T03:34:28.754Z,59.18
2023-04-19T03:36:56.353Z,59.34
2023-04-19T03:39:23.388Z,59.53
2023-04-19T03:41:53.104Z,59.51
2023-04-19T03:44:24.240Z,59.48
2023-04-19T03:46:51.598Z,59.31
2023-04-19T03:49:22.025Z,59.30
2023-04-19T03:51:53.815Z,59.49
2023-04-19T03:54:21.179Z,59.54
2023-04-19T03:56:48.284Z,59.44
2023-04-19T03:59:15.865Z,59.52
2023-04-19T04:01:43.530Z,59.50
2023-04-19T04:04:12.256Z,59.61
2023-04-19T04:06:39.434Z,59.79
2023-04-19T04:09:07.824Z,59.93
2023-04-19T04:11:35.267Z,59.87
2023-04-19T04:14:02.622Z,59.78
2023-04-19T04:16:31.859Z,59.73
2023-04-19T04:18:58.978Z,59.60
2023-04-19T04:21:27.430Z,59.65
2023-04-19T04:23:56.343Z,59.64
2023-04-19T04:26:42.639Z,59.58
2023-04-19T04:29:16.964Z,59.53
2023-04-19T04:31:45.167Z,59.56
2023-04-19T04:36:49.899Z,59.73
2023-04-19T04:39:18.477Z,59.69
2023-04-19T04:41:46.603Z,59.74
2023-04-19T04:44:13.600Z,59.67
2023-04-19T04:46:41.874Z,59.76
2023-04-19T04:49:12.599Z,59.83
2023-04-19T04:51:41.911Z,59.71
2023-04-19T04:54:09.987Z,59.90
2023-04-19T04:56:37.397Z,59.92
2023-04-19T04:59:04.607Z,59.80
2023-04-19T05:01:35.584Z,59.92
2023-04-19T05:04:02.727Z,59.85
2023-04-19T05:06:29.719Z,59.82
2023-04-19T05:08:56.975Z,59.93
2023-04-19T05:11:33.592Z,59.94
2023-04-19T05:14:01.078Z,60.03
2023-04-19T05:16:28.267Z,60.14
2023-04-19T05:18:55.709Z,60.09
2023-04-19T05:21:23.530Z,60.00
2023-04-19T05:23:53.694Z,60.13
2023-04-19T05:26:21.101Z,60.62
2023-04-19T05:28:48.542Z,60.62
2023-04-19T05:31:41.522Z,60.77
2023-04-19T05:34:13.196Z,60.49
2023-04-19T05:36:40.406Z,60.48
2023-04-19T05:39:07.483Z,60.44
2023-04-19T05:41:34.479Z,60.38
2023-04-19T05:44:01.918Z,60.41
2023-04-19T05:46:29.064Z,60.23
2023-04-19T05:48:56.545Z,60.31
2023-04-19T05:51:42.189Z,60.21
2023-04-19T05:54:25.593Z,60.19
2023-04-19T05:56:53.305Z,59.79
2023-04-19T05:59:20.436Z,59.74
2023-04-19T06:01:47.690Z,59.44
2023-04-19T06:04:14.760Z,59.20
2023-04-19T06:06:42.729Z,59.20
2023-04-19T06:09:09.667Z,58.94
2023-04-19T06:11:47.021Z,58.84
2023-04-19T06:14:18.101Z,58.68
2023-04-19T06:16:45.569Z,58.71
2023-04-19T06:19:12.734Z,58.69
2023-04-19T06:21:39.629Z,58.50
2023-04-19T06:24:07.712Z,58.50
2023-04-19T06:26:34.806Z,58.54
2023-04-19T06:29:01.851Z,58.39
2023-04-19T06:31:29.125Z,58.33
2023-04-19T06:33:56.170Z,58.37
2023-04-19T06:36:23.144Z,58.35
2023-04-19T06:38:50.523Z,58.37
2023-04-19T06:41:18.049Z,58.32
2023-04-19T06:43:45.165Z,58.08
2023-04-19T06:46:14.645Z,57.88
2023-04-19T06:48:42.290Z,58.08
2023-04-19T06:51:10.160Z,57.83
2023-04-19T06:53:38.385Z,57.79
2023-04-19T06:56:05.905Z,57.82
2023-04-19T06:58:34.443Z,57.77
2023-04-19T07:01:04.777Z,57.79
2023-04-19T07:03:33.972Z,57.76
2023-04-19T07:06:01.259Z,57.53
2023-04-19T07:08:42.521Z,57.60
2023-04-19T07:11:16.026Z,57.59
2023-04-19T07:13:43.636Z,57.53
2023-04-19T07:16:13.450Z,57.47
2023-04-19T07:18:40.861Z,57.55
2023-04-19T07:21:07.801Z,57.50
2023-04-19T07:23:34.771Z,57.54
2023-04-19T07:26:02.813Z,57.49
2023-04-19T07:28:30.061Z,57.39
2023-04-19T07:30:57.815Z,57.30
2023-04-19T07:33:27.967Z,57.51
2023-04-19T07:35:55.300Z,57.45
2023-04-19T07:38:22.674Z,57.53
2023-04-19T07:40:50.083Z,57.51
2023-04-19T07:43:17.073Z,57.23
2023-04-19T07:45:43.947Z,57.31
2023-04-19T07:48:11.275Z,57.17
2023-04-19T07:50:38.252Z,57.24
2023-04-19T07:53:05.347Z,57.15
2023-04-19T07:55:32.796Z,57.13
2023-04-19T07:58:02.295Z,57.17
2023-04-19T08:00:37.061Z,57.32
2023-04-19T08:03:05.859Z,57.31
2023-04-19T08:05:34.100Z,57.19
2023-04-19T08:08:01.206Z,57.13
2023-04-19T08:10:29.153Z,57.19
2023-04-19T08:13:04.367Z,57.06
2023-04-19T08:18:07.431Z,56.79
2023-04-19T08:20:36.937Z,56.79
2023-04-19T08:23:18.054Z,56.72
2023-04-19T08:25:49.675Z,56.84
2023-04-19T08:28:17.919Z,56.87
2023-04-19T08:30:45.019Z,56.68
2023-04-19T08:33:12.073Z,56.67
2023-04-19T08:35:41.542Z,56.75
2023-04-19T08:38:09.166Z,56.63
2023-04-19T08:40:44.945Z,56.60
2023-04-19T08:43:12.294Z,56.60
2023-04-19T08:45:39.703Z,56.66
2023-04-19T08:48:11.839Z,56.74
2023-04-19T08:50:55.868Z,56.62
2023-04-19T08:53:33.441Z,56.60
2023-04-19T09:01:09.859Z,56.63
2023-04-19T09:03:59.466Z,56.64
2023-04-19T09:06:30.139Z,56.60
2023-04-19T09:09:33.243Z,56.44
2023-04-19T09:12:03.158Z,56.64
2023-04-19T09:14:30.314Z,56.57
2023-04-19T09:17:17.678Z,56.58
2023-04-19T09:19:49.498Z,56.60
2023-04-19T09:22:16.956Z,56.54
2023-04-19T09:27:19.361Z,56.26
2023-04-19T09:29:54.459Z,56.25
2023-04-19T09:32:22.028Z,56.31
2023-04-19T09:35:00.159Z,56.07
2023-04-19T09:39:57.192Z,56.06
2023-04-19T09:42:45.355Z,56.00
2023-04-19T09:47:41.592Z,55.69
2023-04-19T09:50:21.733Z,55.94
2023-04-19T09:52:51.042Z,55.91
2023-04-19T09:57:49.318Z,55.97
2023-04-19T10:00:16.552Z,55.90
2023-04-19T10:02:45.220Z,55.81
2023-04-19T10:05:20.280Z,55.76
2023-04-19T10:07:50.227Z,55.76
2023-04-19T10:10:20.995Z,55.82
2023-04-19T10:15:24.447Z,55.73
2023-04-19T10:17:51.535Z,55.64
2023-04-19T10:20:25.167Z,55.61
2023-04-19T10:22:52.612Z,55.75
2023-04-19T10:25:29.927Z,55.94
2023-04-19T10:27:58.032Z,55.83
2023-04-19T10:30:28.498Z,55.92
2023-04-19T10:32:58.277Z,55.86
2023-04-19T10:35:29.780Z,55.81
2023-04-19T10:38:13.260Z,55.67
2023-04-19T10:40:52.628Z,55.65
2023-04-19T10:43:20.935Z,55.58
2023-04-19T10:45:48.351Z,55.40
2023-04-19T10:48:30.606Z,55.42
2023-04-19T10:51:14.716Z,55.37
2023-04-19T10:53:54.648Z,55.03
2023-04-19T10:56:59.039Z,55.29
2023-04-19T10:59:26.789Z,55.26
2023-04-19T11:01:56.998Z,55.28
2023-04-19T11:04:30.942Z,55.28
2023-04-19T11:07:07.389Z,55.38
2023-04-19T11:09:39.291Z,55.34
2023-04-19T11:12:08.954Z,55.43
2023-04-19T11:14:39.794Z,55.40
2023-04-19T11:17:28.021Z,55.30
2023-04-19T11:19:57.214Z,55.15
2023-04-19T11:22:33.502Z,55.19
2023-04-19T11:25:21.407Z,55.24
2023-04-19T11:27:53.729Z,55.40
2023-04-19T11:30:23.195Z,55.33
2023-04-19T11:32:53.735Z,55.31
2023-04-19T11:35:22.957Z,55.55
2023-04-19T11:37:50.207Z,55.33
2023-04-19T11:40:19.568Z,55.45
2023-04-19T11:42:47.179Z,55.38
2023-04-19T11:45:35.584Z,55.40
2023-04-19T11:48:07.422Z,55.27
2023-04-19T11:50:44.236Z,55.34
2023-04-19T11:53:20.716Z,55.37
2023-04-19T11:55:53.414Z,55.21
2023-04-19T11:58:36.397Z,55.31
2023-04-19T12:01:14.232Z,55.16
2023-04-19T12:03:43.443Z,55.30
2023-04-19T12:06:16.284Z,55.17
2023-04-19T12:08:47.378Z,55.35
2023-04-19T12:11:15.466Z,55.20
2023-04-19T12:13:44.491Z,55.06
2023-04-19T12:16:14.577Z,55.20
2023-04-19T12:18:52.102Z,55.14
2023-04-19T12:21:31.202Z,55.10
2023-04-19T12:24:00.035Z,55.18
2023-04-19T12:26:28.773Z,55.32
2023-04-19T12:28:56.942Z,55.79
2023-04-19T12:31:24.173Z,55.97
2023-04-19T12:33:51.251Z,55.79
2023-04-19T12:36:19.332Z,55.78
2023-04-19T12:38:46.303Z,55.51
2023-04-19T12:41:13.250Z,55.43
2023-04-19T12:43:40.194Z,55.34
2023-04-19T12:46:07.159Z,55.34
2023-04-19T12:48:34.189Z,55.18
2023-04-19T12:51:01.241Z,55.17
2023-04-19T12:53:28.278Z,55.23
2023-04-19T12:55:55.179Z,55.20
2023-04-19T12:58:23.024Z,55.37
2023-04-19T13:00:50.135Z,55.31
2023-04-19T13:03:17.150Z,55.33
2023-04-19T13:05:44.229Z,55.31
2023-04-19T13:08:11.095Z,55.31
2023-04-19T13:10:38.565Z,55.49
2023-04-19T13:13:05.578Z,55.69
2023-04-19T13:15:32.459Z,55.79
2023-04-19T13:17:59.657Z,55.66
2023-04-19T13:20:26.706Z,55.94
2023-04-19T13:22:53.601Z,55.95
2023-04-19T13:25:20.852Z,56.01
2023-04-19T13:27:47.967Z,56.00
2023-04-19T13:30:15.521Z,56.13
2023-04-19T13:32:43.429Z,56.14
2023-04-19T13:35:10.641Z,56.24
2023-04-19T13:37:40.564Z,56.42
2023-04-19T13:40:18.946Z,56.36
2023-04-19T13:42:47.103Z,56.44
2023-04-19T13:45:14.347Z,56.46
2023-04-19T13:47:41.592Z,56.52
2023-04-19T13:50:09.944Z,56.59
2023-04-19T13:52:38.705Z,56.47
2023-04-19T13:55:06.080Z,56.57
2023-04-19T13:57:32.965Z,56.62
2023-04-19T14:00:00.999Z,56.61
2023-04-19T14:02:28.752Z,56.57
2023-04-19T14:04:59.045Z,56.68
2023-04-19T14:07:26.076Z,56.71
2023-04-19T14:09:53.074Z,56.55
2023-04-19T14:12:20.122Z,56.61
2023-04-19T14:14:47.067Z,56.59
2023-04-19T14:17:13.979Z,56.52
2023-04-19T14:19:41.102Z,56.52
2023-04-19T14:22:08.101Z,56.55
2023-04-19T14:24:35.271Z,56.46
2023-04-19T14:29:32.012Z,56.55
2023-04-19T14:32:05.106Z,56.62
2023-04-19T14:34:38.093Z,56.49
2023-04-19T14:37:05.138Z,56.50
2023-04-19T14:39:33.117Z,56.53
2023-04-19T14:42:00.356Z,56.65
2023-04-19T14:44:27.402Z,56.61
2023-04-19T14:46:54.343Z,56.53
2023-04-19T14:49:21.260Z,56.58
2023-04-19T14:51:48.240Z,56.66
2023-04-19T14:54:15.569Z,56.70
2023-04-19T14:56:42.732Z,56.75
2023-04-19T14:59:10.399Z,56.73
2023-04-19T15:01:37.463Z,56.79
2023-04-19T15:04:05.041Z,56.71
2023-04-19T15:06:33.510Z,56.68
2023-04-19T15:09:00.532Z,56.83
2023-04-19T15:11:28.088Z,56.76
2023-04-19T15:13:55.173Z,56.75
2023-04-19T15:16:22.139Z,56.77
2023-04-19T15:18:49.464Z,56.82
2023-04-19T15:21:19.457Z,56.83
2023-04-19T15:23:46.639Z,56.67
2023-04-19T15:26:13.762Z,56.74
2023-04-19T15:28:41.941Z,56.67
2023-04-19T15:31:09.824Z,56.57
2023-04-19T15:33:39.171Z,56.63
2023-04-19T15:36:08.702Z,56.61
2023-04-19T15:38:36.172Z,56.85
2023-04-19T15:41:04.346Z,56.75
2023-04-19T15:43:31.702Z,56.48
2023-04-19T15:45:58.844Z,56.46
2023-04-19T15:48:26.396Z,56.55
2023-04-19T15:50:53.345Z,56.56
2023-04-19T15:53:20.290Z,56.43
2023-04-19T15:55:48.178Z,56.42
2023-04-19T15:58:16.128Z,56.59
2023-04-19T16:00:43.378Z,56.49
2023-04-19T16:03:12.835Z,56.45
2023-04-19T16:05:40.276Z,56.54
2023-04-19T16:08:19.289Z,56.52
2023-04-19T16:10:48.100Z,56.63
2023-04-19T16:13:16.057Z,56.68
2023-04-19T16:15:44.102Z,56.61
2023-04-19T16:18:11.463Z,56.67
2023-04-19T16:20:40.144Z,56.84
2023-04-19T16:23:07.591Z,56.82
2023-04-19T16:25:34.945Z,56.94
2023-04-19T16:28:03.743Z,56.95
2023-04-19T16:30:31.066Z,56.97
2023-04-19T16:32:58.830Z,57.01
2023-04-19T16:35:26.936Z,57.17
2023-04-19T16:37:56.757Z,57.21
2023-04-19T16:40:25.033Z,57.23
2023-04-19T16:42:52.166Z,57.18
2023-04-19T16:45:19.154Z,57.28
2023-04-19T16:47:46.479Z,57.24
2023-04-19T16:50:14.641Z,57.17
2023-04-19T16:52:41.892Z,57.17
2023-04-19T16:55:09.490Z,56.95
2023-04-19T16:57:37.417Z,56.85
2023-04-19T17:00:06.337Z,56.83
2023-04-19T17:02:34.145Z,56.64
2023-04-19T17:05:02.045Z,56.68
2023-04-19T17:07:29.231Z,56.59
2023-04-19T17:09:56.497Z,56.70
2023-04-19T17:12:25.330Z,56.54
2023-04-19T17:14:52.224Z,56.41
2023-04-19T17:17:20.174Z,56.37
2023-04-19T17:19:50.209Z,56.38
2023-04-19T17:22:19.776Z,56.51
2023-04-19T17:24:46.750Z,56.47
2023-04-19T17:27:14.180Z,56.59
2023-04-19T17:29:41.422Z,56.46
2023-04-19T17:32:11.374Z,56.34
2023-04-19T17:34:38.431Z,56.29
2023-04-19T17:37:05.453Z,56.48
2023-04-19T17:39:32.552Z,56.40
2023-04-19T17:41:59.509Z,56.35
2023-04-19T17:44:26.974Z,56.44
2023-04-19T17:46:54.158Z,56.56
2023-04-19T17:49:22.300Z,56.43
2023-04-19T17:51:49.347Z,56.42
2023-04-19T17:54:19.568Z,56.31
2023-04-19T17:56:47.821Z,56.34
2023-04-19T17:59:14.955Z,56.40
2023-04-19T18:01:44.269Z,56.56
2023-04-19T18:04:17.492Z,56.52
2023-04-19T18:06:47.081Z,56.64
2023-04-19T18:09:19.615Z,56.55
2023-04-19T18:11:51.057Z,56.64
2023-04-19T18:14:19.274Z,56.72
2023-04-19T18:16:46.124Z,56.53
2023-04-19T18:19:13.091Z,56.51
2023-04-19T18:21:40.070Z,56.58
2023-04-19T18:24:07.102Z,56.56
2023-04-19T18:26:41.385Z,56.70
2023-04-19T18:29:09.879Z,56.59
2023-04-19T18:31:36.959Z,56.55
2023-04-19T18:34:04.281Z,56.61
2023-04-19T18:36:32.222Z,56.58
2023-04-19T18:38:59.578Z,56.53
2023-04-19T18:41:26.569Z,56.66
2023-04-19T18:44:25.814Z,56.62
2023-04-19T18:46:41.730Z,56.47
2023-04-19T18:49:08.889Z,56.53
2023-04-19T18:51:36.971Z,56.49
2023-04-19T18:54:04.022Z,56.40
2023-04-19T18:57:10.057Z,56.29
2023-04-19T18:59:18.316Z,56.29
2023-04-19T19:01:46.226Z,56.41
2023-04-19T19:04:42.952Z,56.32
2023-04-19T19:07:22.940Z,56.58
2023-04-19T19:09:56.698Z,56.53
2023-04-19T19:12:24.024Z,56.70
2023-04-19T19:14:51.226Z,56.64
2023-04-19T19:17:18.381Z,56.62
2023-04-19T19:19:45.293Z,56.65
2023-04-19T19:22:25.095Z,56.59
2023-04-19T19:24:55.071Z,56.49
2023-04-19T19:27:22.176Z,56.59
2023-04-19T19:29:49.118Z,56.52
2023-04-19T19:32:19.577Z,56.57
2023-04-19T19:34:55.684Z,56.58
2023-04-19T19:37:27.988Z,56.57
2023-04-19T19:39:56.705Z,56.55
2023-04-19T19:42:27.689Z,56.40
2023-04-19T19:44:55.651Z,56.51
2023-04-19T19:47:25.286Z,56.53
2023-04-19T19:50:41.060Z,56.46
2023-04-19T19:52:42.282Z,56.53
2023-04-19T19:55:12.498Z,56.38
2023-04-19T20:02:54.312Z,56.78
2023-04-19T20:05:24.069Z,57.02
2023-04-19T20:10:21.491Z,57.18
2023-04-19T20:12:48.470Z,57.35
2023-04-19T20:15:15.496Z,57.55
2023-04-19T20:17:44.437Z,57.41
2023-04-19T20:20:12.284Z,57.55
2023-04-19T20:22:39.220Z,57.85
2023-04-19T20:25:07.081Z,57.90
2023-04-19T20:27:34.188Z,58.21
2023-04-19T20:30:01.190Z,58.36
2023-04-19T20:32:28.310Z,58.41
2023-04-19T20:34:56.345Z,58.50
2023-04-19T20:37:23.599Z,58.57
2023-04-19T20:39:50.574Z,58.48
2023-04-19T20:42:17.822Z,58.31
2023-04-19T20:44:44.688Z,58.36
2023-04-19T20:47:13.429Z,58.32
2023-04-19T20:49:41.054Z,58.20
2023-04-19T20:52:08.124Z,58.18
2023-04-19T20:54:36.880Z,58.29
2023-04-19T20:57:04.930Z,58.36
2023-04-19T20:59:32.576Z,58.22
2023-04-19T21:02:00.355Z,58.40
2023-04-19T21:04:27.687Z,58.29
2023-04-19T21:06:55.415Z,58.47
2023-04-19T21:09:23.128Z,58.59
2023-04-19T21:11:50.256Z,58.67
2023-04-19T21:14:17.949Z,58.57
2023-04-19T21:16:45.243Z,58.80
2023-04-19T21:19:12.152Z,58.77
2023-04-19T21:21:39.239Z,58.91
2023-04-19T21:24:07.902Z,59.05
2023-04-19T21:26:34.784Z,58.96
2023-04-19T21:29:01.962Z,59.01
2023-04-19T21:31:28.975Z,59.05
2023-04-19T21:33:55.897Z,59.19
2023-04-19T21:36:22.894Z,59.00
2023-04-19T21:38:49.851Z,59.11
2023-04-19T21:41:16.792Z,59.22
2023-04-19T21:43:43.687Z,59.14
2023-04-19T21:46:10.932Z,59.41
2023-04-19T21:48:37.922Z,59.51
2023-04-19T21:51:05.217Z,59.70
2023-04-19T21:53:32.525Z,59.54
2023-04-19T21:55:59.628Z,59.45
2023-04-19T21:58:26.500Z,59.48
2023-04-19T22:00:53.938Z,59.50
2023-04-19T22:03:21.171Z,59.35
2023-04-19T22:05:48.223Z,59.41
2023-04-19T22:08:18.165Z,59.40
2023-04-19T22:10:46.499Z,59.41
2023-04-19T22:13:14.103Z,59.36
2023-04-19T22:15:41.123Z,59.43
2023-04-19T22:18:08.837Z,59.40
2023-04-19T22:20:35.805Z,59.35
2023-04-19T22:23:02.788Z,59.56
2023-04-19T22:25:29.976Z,59.31
2023-04-19T22:27:56.910Z,59.56
2023-04-19T22:30:23.898Z,59.60
2023-04-19T22:32:51.251Z,59.47
2023-04-19T22:35:19.112Z,59.60
2023-04-19T22:37:47.649Z,59.93
2023-04-19T22:40:14.625Z,59.90
2023-04-19T22:42:41.522Z,59.84
2023-04-19T22:45:09.333Z,60.03
2023-04-19T22:47:38.037Z,59.83
2023-04-19T22:50:05.360Z,59.98
2023-04-19T22:52:32.316Z,59.96
2023-04-19T22:54:59.262Z,60.06
2023-04-19T22:57:26.153Z,60.38
2023-04-19T22:59:53.119Z,60.38
2023-04-19T23:02:20.476Z,60.25
2023-04-19T23:04:49.196Z,60.11
2023-04-19T23:07:16.343Z,60.07
2023-04-19T23:09:43.271Z,60.07
2023-04-19T23:12:10.258Z,59.99
2023-04-19T23:14:38.986Z,59.97
2023-04-19T23:17:06.304Z,59.89
2023-04-19T23:19:33.354Z,59.99
2023-04-19T23:22:00.257Z,60.03
2023-04-19T23:24:27.184Z,59.98
2023-04-19T23:26:54.120Z,60.10
2023-04-19T23:29:21.032Z,60.16
2023-04-19T23:31:48.113Z,59.97
2023-04-19T23:34:15.218Z,59.90
2023-04-19T23:36:42.141Z,60.01
2023-04-19T23:39:09.346Z,59.94
2023-04-19T23:41:36.489Z,60.09
2023-04-19T23:44:03.797Z,59.87
2023-04-19T23:46:31.122Z,60.09
2023-04-19T23:48:57.984Z,60.12
2023-04-19T23:51:24.928Z,59.98
2023-04-19T23:53:51.863Z,60.07
2023-04-19T23:56:18.750Z,60.07
2023-04-19T23:58:45.781Z,60.16
